Time;durP1;ratioP1;P1;durP2;ratioP2;P2;SDS_P1;SDS_P2;PMS_P1;PMS_P2;Temp;Humidity;BMP_temperature;BMP_pressure;BME280_temperature;BME280_humidity;BME280_pressure;Samples;Min_cycle;Max_cycle;Signal;HPM_P1;HPM_P2
2021/10/12 00:00:32;;;;;;;;;7.25;4.00;;;;;23.80;41.13;102709.81;5077767;28;45404;-68
2021/10/12 00:02:58;;;;;;;;;4.50;4.00;;;;;23.79;40.85;102701.97;5076010;28;45332;-68
2021/10/12 00:05:23;;;;;;;;;5.00;3.00;;;;;23.81;41.06;102692.84;5076005;28;45391;-68
2021/10/12 00:07:49;;;;;;;;;5.00;4.00;;;;;23.81;40.46;102697.38;5076060;28;45577;-68
2021/10/12 00:10:15;;;;;;;;;3.25;3.25;;;;;23.81;40.84;102692.03;5074893;28;45380;-69
2021/10/12 00:12:41;;;;;;;;;5.00;4.50;;;;;23.81;40.89;102692.03;5077135;28;45252;-68
2021/10/12 00:15:07;;;;;;;;;4.25;2.75;;;;;23.80;40.67;102683.22;5075583;28;45325;-68
2021/10/12 00:17:32;;;;;;;;;3.50;3.50;;;;;23.73;40.92;102668.88;5074217;28;45428;-68
2021/10/12 00:19:58;;;;;;;;;4.25;4.25;;;;;23.65;40.58;102658.13;5075609;28;46209;-68
2021/10/12 00:22:23;;;;;;;;;6.75;5.00;;;;;23.80;41.09;102677.91;5075709;28;45317;-68
2021/10/12 00:24:49;;;;;;;;;4.00;3.50;;;;;23.79;40.83;102681.53;5077621;28;45295;-68
2021/10/12 00:27:14;;;;;;;;;4.25;4.00;;;;;23.79;41.05;102686.00;5075615;28;45331;-68
2021/10/12 00:29:41;;;;;;;;;5.00;4.25;;;;;23.78;40.96;102682.53;5075554;28;46253;-68
2021/10/12 00:32:08;;;;;;;;;2.75;2.75;;;;;23.65;40.61;102666.09;5075649;28;45328;-68
2021/10/12 00:34:34;;;;;;;;;5.00;4.75;;;;;23.78;40.63;102681.69;5075517;28;45790;-68
2021/10/12 00:36:59;;;;;;;;;5.50;3.75;;;;;23.78;40.58;102687.03;5076378;28;45352;-68
2021/10/12 00:39:24;;;;;;;;;6.00;5.00;;;;;23.77;40.68;102686.19;5076673;28;45426;-68
2021/10/12 00:41:50;;;;;;;;;5.00;3.25;;;;;23.78;40.74;102681.69;5075022;28;45457;-68
2021/10/12 00:44:16;;;;;;;;;3.00;3.00;;;;;23.77;40.85;102680.84;5075627;28;45434;-68
2021/10/12 00:46:41;;;;;;;;;5.00;4.00;;;;;23.76;40.99;102679.19;5075397;28;45357;-68
2021/10/12 00:49:07;;;;;;;;;5.25;4.00;;;;;23.76;40.66;102665.88;5075487;28;46108;-68
2021/10/12 00:51:32;;;;;;;;;4.75;3.50;;;;;23.67;40.45;102651.69;5075704;28;45501;-69
2021/10/12 00:53:58;;;;;;;;;3.75;3.75;;;;;23.74;40.49;102660.72;5075110;28;45403;-68
2021/10/12 00:56:23;;;;;;;;;6.00;4.00;;;;;23.68;40.91;102657.84;5073408;27;45395;-68
2021/10/12 00:58:50;;;;;;;;;4.00;3.00;;;;;23.74;40.95;102667.84;5075008;28;46875;-68
2021/10/12 01:01:15;;;;;;;;;5.00;4.00;;;;;23.74;40.60;102667.84;5074579;28;45487;-68
2021/10/12 01:03:41;;;;;;;;;3.00;3.00;;;;;23.72;41.01;102668.03;5076205;28;45321;-68
2021/10/12 01:06:08;;;;;;;;;4.75;4.00;;;;;23.66;40.49;102660.63;5074971;28;45423;-68
2021/10/12 01:08:33;;;;;;;;;6.50;4.75;;;;;23.72;40.68;102667.19;5074801;28;46021;-68
2021/10/12 01:10:59;;;;;;;;;5.50;2.50;;;;;23.72;40.44;102673.34;5074630;28;45371;-68
2021/10/12 01:13:25;;;;;;;;;4.50;4.00;;;;;23.72;40.89;102669.84;5075172;28;45371;-68
2021/10/12 01:15:52;;;;;;;;;6.25;4.00;;;;;23.72;40.94;102659.19;5076321;28;45421;-68
2021/10/12 01:18:18;;;;;;;;;6.00;3.25;;;;;23.73;40.68;102644.94;5075225;28;45396;-69
2021/10/12 01:20:43;;;;;;;;;3.00;3.00;;;;;23.72;40.66;102651.22;5074662;28;45352;-69
2021/10/12 01:23:10;;;;;;;;;6.25;6.00;;;;;23.72;40.56;102654.72;5074743;28;45560;-68
2021/10/12 01:25:36;;;;;;;;;3.50;3.50;;;;;23.72;40.25;102654.72;5074670;28;45378;-68
2021/10/12 01:28:02;;;;;;;;;3.25;3.25;;;;;23.64;40.13;102628.06;5075423;28;45404;-68
2021/10/12 01:30:28;;;;;;;;;4.75;4.00;;;;;23.63;40.41;102610.44;5074238;28;45384;-68
2021/10/12 01:32:53;;;;;;;;;5.25;3.75;;;;;23.68;40.44;102629.41;5053247;28;45352;-68
2021/10/12 01:35:19;;;;;;;;;5.25;4.00;;;;;23.73;40.66;102615.72;5073081;28;45396;-68
2021/10/12 01:37:44;;;;;;;;;5.50;5.50;;;;;23.70;40.58;102610.69;5074422;28;46012;-68
2021/10/12 01:40:11;;;;;;;;;4.75;4.50;;;;;23.58;40.63;102594.94;5074135;28;45527;-68
2021/10/12 01:42:37;;;;;;;;;3.25;3.25;;;;;23.68;40.18;102608.16;5076478;28;45539;-68
2021/10/12 01:45:07;;;;;;;;;7.00;6.25;;;;;23.72;40.73;102616.69;5074257;28;45568;-68
2021/10/12 01:47:33;;;;;;;;;5.25;5.25;;;;;23.65;40.56;102604.97;5074147;28;47976;-68
2021/10/12 01:49:58;;;;;;;;;4.00;3.75;;;;;23.60;40.37;102590.31;5074284;28;45284;-68
2021/10/12 01:52:24;;;;;;;;;4.00;4.00;;;;;23.65;40.19;102603.16;5074546;28;45388;-68
2021/10/12 01:54:49;;;;;;;;;3.00;3.00;;;;;23.71;40.42;102623.81;5075639;28;45515;-68
2021/10/12 01:57:14;;;;;;;;;4.00;4.00;;;;;23.71;40.11;102613.19;5074560;28;45232;-68
2021/10/12 01:59:40;;;;;;;;;4.00;3.00;;;;;23.70;40.12;102603.56;5074348;28;45275;-68
2021/10/12 02:02:05;;;;;;;;;4.00;4.00;;;;;23.70;40.85;102602.72;5074266;28;45274;-68
2021/10/12 02:04:34;;;;;;;;;4.75;4.00;;;;;23.70;40.51;102616.00;5054772;28;47363;-68
2021/10/12 02:07:00;;;;;;;;;5.50;4.00;;;;;23.70;40.47;102605.38;5074818;28;46342;-68
2021/10/12 02:09:26;;;;;;;;;4.50;4.00;;;;;23.65;40.16;102599.66;5073149;28;45493;-68
2021/10/12 02:11:52;;;;;;;;;5.50;3.75;;;;;23.69;40.73;102609.84;5074022;28;45555;-68
2021/10/12 02:14:17;;;;;;;;;4.75;4.25;;;;;23.69;40.22;102616.97;5071490;28;45343;-68
2021/10/12 02:16:43;;;;;;;;;4.50;3.00;;;;;23.64;40.49;102606.81;5073898;28;45305;-68
2021/10/12 02:19:09;;;;;;;;;4.00;4.00;;;;;23.69;40.20;102611.66;5074135;28;45344;-68
2021/10/12 02:21:34;;;;;;;;;5.25;4.25;;;;;23.69;40.71;102611.66;5075944;28;45381;-68
2021/10/12 02:24:00;;;;;;;;;5.00;4.00;;;;;23.55;40.52;102584.59;5073605;28;45457;-68
2021/10/12 02:26:25;;;;;;;;;3.75;3.75;;;;;23.62;40.27;102595.50;5073794;28;45472;-69
2021/10/12 02:28:51;;;;;;;;;7.00;4.25;;;;;23.67;40.44;102601.19;5073975;28;45524;-68
2021/10/12 02:31:16;;;;;;;;;3.25;3.25;;;;;23.61;40.41;102591.16;5057739;28;45474;-68
2021/10/12 02:33:42;;;;;;;;;4.00;2.00;;;;;23.62;40.46;102596.31;5075848;28;45513;-69
2021/10/12 02:36:07;;;;;;;;;4.50;4.00;;;;;23.66;40.12;102598.66;5073429;28;47184;-69
2021/10/12 02:38:33;;;;;;;;;6.00;6.00;;;;;23.66;40.08;102590.69;5073558;28;45380;-68
2021/10/12 02:40:58;;;;;;;;;4.00;4.00;;;;;23.64;40.01;102580.22;5073805;28;45488;-68
2021/10/12 02:43:24;;;;;;;;;6.50;5.00;;;;;23.66;40.64;102580.91;5073884;28;45397;-68
2021/10/12 02:45:50;;;;;;;;;5.25;3.75;;;;;23.61;40.11;102572.53;5075222;28;47365;-69
2021/10/12 02:48:16;;;;;;;;;5.25;4.00;;;;;23.64;40.39;102577.56;5072167;28;45313;-68
2021/10/12 02:50:45;;;;;;;;;3.75;3.50;;;;;23.63;40.65;102571.41;5073159;28;45449;-68
2021/10/12 02:53:11;;;;;;;;;7.00;4.25;;;;;23.65;40.41;102571.28;5071905;28;45473;-68
2021/10/12 02:55:37;;;;;;;;;4.50;4.50;;;;;23.52;40.45;102545.06;5073300;28;47381;-68
2021/10/12 02:58:03;;;;;;;;;4.00;3.00;;;;;23.66;40.04;102562.31;5073841;28;45514;-68
2021/10/12 03:00:29;;;;;;;;;4.75;4.00;;;;;23.65;40.29;102560.66;5073137;28;45521;-69
2021/10/12 03:02:54;;;;;;;;;6.00;4.00;;;;;23.63;40.03;102554.63;5073339;28;45451;-68
2021/10/12 03:05:20;;;;;;;;;3.00;2.75;;;;;23.58;40.15;102543.63;5072958;28;45301;-68
2021/10/12 03:07:45;;;;;;;;;4.50;3.25;;;;;23.62;40.35;102550.31;5073327;28;45551;-68
2021/10/12 03:10:11;;;;;;;;;4.00;3.00;;;;;23.66;39.92;102551.69;5073721;28;45297;-68
2021/10/12 03:12:37;;;;;;;;;5.75;4.75;;;;;23.66;39.88;102551.69;5057210;28;45357;-68
2021/10/12 03:15:05;;;;;;;;;5.00;5.00;;;;;23.63;40.03;102551.97;5072930;28;45495;-68
2021/10/12 03:17:30;;;;;;;;;4.00;4.00;;;;;23.62;40.27;102551.16;5073419;28;45480;-68
2021/10/12 03:19:55;;;;;;;;;5.50;4.50;;;;;23.67;40.04;102560.50;5054702;28;45459;-68
2021/10/12 03:22:21;;;;;;;;;6.50;4.00;;;;;23.67;40.21;102558.69;5073385;28;45336;-69
2021/10/12 03:24:46;;;;;;;;;4.00;4.00;;;;;23.67;40.28;102556.03;5075130;28;47109;-68
2021/10/12 03:27:13;;;;;;;;;2.00;2.00;;;;;23.68;40.11;102551.53;5074652;28;45383;-68
2021/10/12 03:29:39;;;;;;;;;4.75;4.00;;;;;23.68;40.32;102540.91;5076624;28;45605;-68
2021/10/12 03:32:05;;;;;;;;;4.75;4.00;;;;;23.66;40.03;102530.41;5074871;28;45526;-68
2021/10/12 03:34:32;;;;;;;;;5.50;4.25;;;;;23.67;40.36;102532.09;5075917;28;46012;-68
2021/10/12 03:36:59;;;;;;;;;3.75;3.75;;;;;23.66;39.92;102535.72;5059216;28;45879;-69
2021/10/12 03:39:25;;;;;;;;;5.50;4.25;;;;;23.67;39.91;102532.09;5077708;28;45345;-68
2021/10/12 03:41:51;;;;;;;;;6.50;5.00;;;;;23.67;39.77;102537.41;5076319;28;45474;-69
2021/10/12 03:44:18;;;;;;;;;3.25;3.25;;;;;23.67;39.88;102525.94;5076122;28;45400;-68
2021/10/12 03:46:43;;;;;;;;;4.50;3.50;;;;;23.52;39.87;102499.91;5076435;28;45344;-68
2021/10/12 03:49:08;;;;;;;;;5.00;5.00;;;;;23.67;40.03;102517.97;5076168;28;45502;-68
2021/10/12 03:51:34;;;;;;;;;3.25;3.00;;;;;23.68;39.55;102519.66;5078294;28;45423;-68
2021/10/12 03:53:59;;;;;;;;;6.25;4.75;;;;;23.67;40.28;102529.44;5076219;28;46223;-68
2021/10/12 03:56:24;;;;;;;;;3.25;3.25;;;;;23.64;39.79;102513.78;5076165;28;45330;-68
2021/10/12 03:58:50;;;;;;;;;4.00;4.00;;;;;23.67;39.70;102517.97;5076392;28;45402;-68
2021/10/12 04:01:15;;;;;;;;;4.25;4.25;;;;;23.61;39.82;102499.00;5076114;28;45355;-68
2021/10/12 04:03:43;;;;;;;;;3.75;3.75;;;;;23.65;40.30;102519.94;5077657;28;46194;-68
2021/10/12 04:06:09;;;;;;;;;4.50;3.25;;;;;23.52;39.63;102489.28;5074450;28;45414;-68
2021/10/12 04:08:35;;;;;;;;;7.00;4.75;;;;;23.66;39.97;102505.66;5075834;28;45452;-68
2021/10/12 04:11:00;;;;;;;;;1.00;1.00;;;;;23.62;39.74;102503.34;5074014;28;50031;-68
2021/10/12 04:13:25;;;;;;;;;3.00;3.00;;;;;23.64;40.28;102513.78;5075957;28;46268;-68
2021/10/12 04:15:51;;;;;;;;;6.00;4.00;;;;;23.65;39.67;102509.31;5077353;28;46170;-68
2021/10/12 04:18:16;;;;;;;;;3.50;3.50;;;;;23.65;39.97;102511.97;5076534;28;45356;-68
2021/10/12 04:20:41;;;;;;;;;3.50;3.25;;;;;23.57;39.74;102499.44;5075867;28;45515;-68
2021/10/12 04:23:10;;;;;;;;;2.00;2.00;;;;;23.57;40.06;102510.06;5075526;28;47044;-68
2021/10/12 04:25:37;;;;;;;;;4.00;4.00;;;;;23.64;39.88;102516.44;5075823;28;45522;-68
2021/10/12 04:28:05;;;;;;;;;6.50;4.00;;;;;23.63;40.27;102517.44;5076052;28;45353;-68
2021/10/12 04:30:30;;;;;;;;;6.25;5.00;;;;;23.63;39.81;102509.47;5075415;28;45297;-68
2021/10/12 04:32:56;;;;;;;;;5.00;4.00;;;;;23.52;39.89;102499.91;5075224;28;46191;-68
2021/10/12 04:35:21;;;;;;;;;6.00;5.75;;;;;23.61;40.11;102514.09;5075307;28;45600;-68
2021/10/12 04:37:46;;;;;;;;;5.50;5.00;;;;;23.54;39.62;102499.75;5074971;28;45535;-68
2021/10/12 04:40:12;;;;;;;;;5.00;5.00;;;;;23.58;40.02;102501.09;5075650;28;45541;-68
2021/10/12 04:42:37;;;;;;;;;6.00;5.75;;;;;23.61;39.96;102506.97;5077440;28;45496;-68
2021/10/12 04:45:03;;;;;;;;;3.75;3.00;;;;;23.59;39.99;102498.31;5073663;28;45561;-68
2021/10/12 04:47:29;;;;;;;;;8.00;4.00;;;;;23.62;39.79;102510.47;5074961;28;45329;-68
2021/10/12 04:49:54;;;;;;;;;3.50;3.50;;;;;23.61;39.95;102506.13;5073884;28;45286;-68
2021/10/12 04:52:19;;;;;;;;;4.00;4.00;;;;;23.60;40.05;102499.97;5075370;28;46411;-68
2021/10/12 04:54:44;;;;;;;;;5.00;5.00;;;;;23.61;40.19;102506.97;5072735;28;45390;-68
2021/10/12 04:57:10;;;;;;;;;7.50;6.25;;;;;23.60;39.61;102504.47;5075114;28;45332;-68
2021/10/12 04:59:35;;;;;;;;;5.50;4.75;;;;;23.61;39.99;102503.47;5067937;27;45510;-68
2021/10/12 05:02:01;;;;;;;;;6.00;5.00;;;;;23.51;39.53;102485.78;5074441;28;46109;-68
2021/10/12 05:04:26;;;;;;;;;5.00;5.00;;;;;23.61;40.13;102498.16;5075145;27;45415;-68
2021/10/12 05:06:51;;;;;;;;;5.00;4.50;;;;;23.60;40.21;102507.94;5076905;28;45353;-68
2021/10/12 05:09:17;;;;;;;;;3.50;3.50;;;;;23.61;40.13;102508.78;5073834;28;45836;-68
2021/10/12 05:11:42;;;;;;;;;4.25;4.25;;;;;23.61;39.45;102496.34;5074756;28;45399;-68
2021/10/12 05:14:07;;;;;;;;;4.00;4.00;;;;;23.48;40.14;102480.72;5074832;28;45326;-68
2021/10/12 05:16:34;;;;;;;;;6.25;4.75;;;;;23.62;39.55;102515.78;5074940;28;45409;-68
2021/10/12 05:19:00;;;;;;;;;4.00;4.00;;;;;23.62;39.51;102507.81;5075846;28;45379;-68
2021/10/12 05:21:27;;;;;;;;;6.00;5.25;;;;;23.61;39.88;102506.97;5074437;28;46129;-68
2021/10/12 05:23:53;;;;;;;;;4.00;4.00;;;;;23.62;39.63;102495.34;5072454;27;45412;-68
2021/10/12 05:26:20;;;;;;;;;5.75;4.00;;;;;23.62;39.75;102506.00;5073029;28;45447;-68
2021/10/12 05:28:46;;;;;;;;;6.50;4.75;;;;;23.62;40.03;102498.03;5056416;28;45569;-68
2021/10/12 05:31:12;;;;;;;;;4.75;4.75;;;;;23.55;39.44;102488.16;5072541;28;45632;-68
2021/10/12 05:33:37;;;;;;;;;4.00;3.00;;;;;23.61;40.11;102496.34;5074746;28;45484;-68
2021/10/12 05:36:03;;;;;;;;;6.50;4.00;;;;;23.47;39.96;102473.72;5073047;27;45316;-68
2021/10/12 05:38:28;;;;;;;;;7.00;4.00;;;;;23.60;40.22;102497.31;5072901;28;45419;-68
2021/10/12 05:40:54;;;;;;;;;5.00;3.25;;;;;23.61;40.05;102495.50;5072594;28;47074;-68
2021/10/12 05:43:19;;;;;;;;;6.00;5.00;;;;;23.31;39.72;102444.38;5073016;28;45502;-67
2021/10/12 05:45:45;;;;;;;;;3.00;3.00;;;;;23.60;39.71;102493.84;5074877;28;45665;-67
2021/10/12 05:48:11;;;;;;;;;4.00;3.00;;;;;23.58;39.97;102491.31;5073229;28;45327;-66
2021/10/12 05:50:41;;;;;;;;;5.00;4.75;;;;;23.58;40.16;102491.31;5074110;28;46255;-65
2021/10/12 05:53:24;;;;;;;;;7.25;4.50;;;;;23.60;40.33;102494.66;5074117;28;45579;-66
2021/10/12 05:55:54;;;;;;;;;4.00;4.00;;;;;23.60;40.28;102486.69;5077387;27;45439;-67
2021/10/12 05:58:31;;;;;;;;;5.00;3.00;;;;;23.61;40.14;102500.81;5073699;28;45565;-67
2021/10/12 06:00:57;;;;;;;;;6.25;4.50;;;;;23.61;40.25;102500.81;5073079;28;46603;-67
2021/10/12 06:03:23;;;;;;;;;6.50;5.00;;;;;23.60;40.27;102499.97;5075060;28;45409;-67
2021/10/12 06:05:49;;;;;;;;;4.00;3.00;;;;;23.60;40.96;102504.47;5061379;28;45345;-67
2021/10/12 06:08:14;;;;;;;;;4.75;4.00;;;;;23.62;40.69;102505.16;5061404;27;45338;-67
2021/10/12 06:10:40;;;;;;;;;4.25;4.25;;;;;23.52;40.57;102486.63;5059681;28;45973;-67
2021/10/12 06:13:10;;;;;;;;;7.25;5.75;;;;;23.61;40.79;102506.97;5058099;28;45599;-67
2021/10/12 06:15:36;;;;;;;;;3.00;3.00;;;;;23.61;40.56;102503.47;5059810;28;45519;-67
2021/10/12 06:18:01;;;;;;;;;6.75;6.25;;;;;23.57;40.80;102504.75;5077245;27;45577;-67
2021/10/12 06:20:26;;;;;;;;;3.25;3.25;;;;;23.60;40.77;102505.28;5061100;28;46306;-67
2021/10/12 06:22:52;;;;;;;;;6.00;6.00;;;;;23.61;41.00;102498.16;5061603;28;45430;-68
2021/10/12 06:25:17;;;;;;;;;5.00;4.00;;;;;23.61;40.83;102498.16;5057287;28;45422;-68
2021/10/12 06:27:43;;;;;;;;;5.75;5.00;;;;;23.58;40.57;102491.31;5075681;27;45573;-67
2021/10/12 06:30:10;;;;;;;;;6.00;5.50;;;;;23.61;40.52;102493.69;5060890;28;47944;-67
2021/10/12 06:32:35;;;;;;;;;9.00;5.00;;;;;23.49;41.14;102477.13;5061172;28;45421;-68
2021/10/12 06:35:01;;;;;;;;;6.75;4.00;;;;;23.62;41.07;102500.69;5061821;28;45375;-67
2021/10/12 06:37:26;;;;;;;;;7.00;6.50;;;;;23.63;40.49;102496.16;5073815;28;45363;-67
2021/10/12 06:39:52;;;;;;;;;6.00;6.00;;;;;23.63;40.93;102482.88;5075361;28;46910;-68
2021/10/12 06:42:17;;;;;;;;;6.00;4.75;;;;;23.64;40.51;102489.88;5072556;28;45443;-68
2021/10/12 06:44:42;;;;;;;;;7.50;4.25;;;;;23.64;40.63;102489.88;5073261;28;45547;-68
2021/10/12 06:47:08;;;;;;;;;8.25;5.75;;;;;23.63;40.79;102489.03;5071975;28;45379;-68
2021/10/12 06:49:33;;;;;;;;;7.00;7.00;;;;;23.64;40.25;102487.22;5073404;28;45313;-68
2021/10/12 06:51:58;;;;;;;;;5.25;5.00;;;;;23.65;40.90;102485.41;5074484;28;45285;-68
2021/10/12 06:54:24;;;;;;;;;4.75;4.00;;;;;23.64;40.72;102473.94;5074825;28;45219;-68
2021/10/12 06:56:49;;;;;;;;;5.00;5.00;;;;;23.64;40.88;102481.91;5073634;28;45404;-67
2021/10/12 06:59:15;;;;;;;;;9.50;5.00;;;;;23.64;40.38;102484.56;5072976;28;46025;-68
2021/10/12 07:01:40;;;;;;;;;5.75;5.00;;;;;23.64;40.93;102487.22;5075972;28;45325;-68
2021/10/12 07:04:05;;;;;;;;;7.00;5.50;;;;;23.63;40.28;102485.53;5077312;28;45273;-68
2021/10/12 07:06:31;;;;;;;;;5.00;5.00;;;;;23.61;40.87;102483.06;5078946;28;45368;-68
2021/10/12 07:08:56;;;;;;;;;4.75;4.75;;;;;23.63;40.65;102488.19;5076867;28;46154;-68
2021/10/12 07:11:22;;;;;;;;;7.00;6.00;;;;;23.62;40.78;102484.72;5076216;28;45530;-67
2021/10/12 07:13:48;;;;;;;;;7.75;6.00;;;;;23.54;40.82;102471.38;5072029;28;45690;-68
2021/10/12 07:16:15;;;;;;;;;5.25;5.25;;;;;23.62;40.88;102487.38;5076898;28;45341;-67
2021/10/12 07:18:41;;;;;;;;;4.00;4.00;;;;;23.62;40.29;102495.34;5078086;28;46293;-68
2021/10/12 07:21:07;;;;;;;;;5.25;4.00;;;;;23.62;40.28;102492.69;5074881;28;45661;-67
2021/10/12 07:23:34;;;;;;;;;6.50;4.75;;;;;23.54;40.60;102476.69;5076685;28;45379;-68
2021/10/12 07:25:59;;;;;;;;;5.50;5.25;;;;;23.59;40.72;102486.84;5075030;28;45480;-68
2021/10/12 07:28:25;;;;;;;;;7.00;4.25;;;;;23.58;40.53;102483.34;5075966;28;46227;-68
2021/10/12 07:30:50;;;;;;;;;5.25;5.00;;;;;23.63;40.76;102488.19;5078269;28;45268;-67
2021/10/12 07:33:15;;;;;;;;;4.25;4.25;;;;;23.63;40.72;102496.16;5077236;28;45608;-68
2021/10/12 07:35:43;;;;;;;;;5.00;5.00;;;;;23.62;40.43;102491.88;5075050;28;45440;-68
2021/10/12 07:38:11;;;;;;;;;6.25;6.25;;;;;23.61;40.70;102490.19;5076309;28;46152;-68
2021/10/12 07:40:39;;;;;;;;;4.50;4.50;;;;;23.61;40.77;102484.88;5076002;28;45439;-69
2021/10/12 07:43:04;;;;;;;;;6.00;6.00;;;;;23.61;40.41;102475.06;5076597;28;45633;-68
2021/10/12 07:45:30;;;;;;;;;6.50;5.75;;;;;23.62;40.86;102476.75;5078166;28;45310;-67
2021/10/12 07:47:56;;;;;;;;;7.00;6.00;;;;;23.58;40.83;102469.22;5076129;28;45977;-68
2021/10/12 07:50:21;;;;;;;;;5.75;5.75;;;;;23.63;40.20;102483.72;5076047;28;45533;-68
2021/10/12 07:52:47;;;;;;;;;7.50;7.00;;;;;23.60;40.20;102468.09;5075472;28;45300;-68
2021/10/12 07:55:15;;;;;;;;;6.00;5.75;;;;;23.65;40.32;102472.97;5075980;28;45958;-68
2021/10/12 07:57:41;;;;;;;;;7.50;5.75;;;;;23.61;40.63;102469.75;5078130;28;47107;-68
2021/10/12 08:00:09;;;;;;;;;7.50;6.25;;;;;23.66;40.48;102473.78;5074370;28;45367;-68
2021/10/12 08:02:34;;;;;;;;;6.50;5.50;;;;;23.67;40.48;102480.78;5076020;28;45576;-68
2021/10/12 08:04:59;;;;;;;;;6.50;6.00;;;;;23.66;40.10;102471.97;5074314;28;45332;-68
2021/10/12 08:07:25;;;;;;;;;6.00;5.00;;;;;23.61;40.62;102467.09;5057783;28;48507;-68
2021/10/12 08:09:51;;;;;;;;;5.25;5.25;;;;;23.68;40.59;102464.66;5077121;28;45357;-68
2021/10/12 08:12:16;;;;;;;;;6.25;5.50;;;;;23.67;40.37;102460.34;5075226;28;45423;-67
2021/10/12 08:14:45;;;;;;;;;7.50;6.00;;;;;23.68;40.33;102466.50;5075766;28;45440;-68
2021/10/12 08:17:11;;;;;;;;;7.50;6.00;;;;;23.61;40.57;102450.31;5075346;28;45451;-67
2021/10/12 08:19:36;;;;;;;;;8.25;7.75;;;;;23.70;40.45;102459.22;5075790;28;46087;-67
2021/10/12 08:22:02;;;;;;;;;6.25;5.00;;;;;23.70;40.05;102459.22;5076439;28;45400;-68
2021/10/12 08:24:28;;;;;;;;;8.25;7.50;;;;;23.70;39.93;102459.22;5076907;28;45393;-67
2021/10/12 08:26:53;;;;;;;;;7.75;6.00;;;;;23.70;40.27;102460.06;5075457;28;45431;-67
2021/10/12 08:29:19;;;;;;;;;9.00;7.50;;;;;23.71;40.58;102455.56;5075511;28;45415;-67
2021/10/12 08:31:45;;;;;;;;;10.50;5.00;;;;;23.63;40.00;102451.00;5075967;28;45654;-68
2021/10/12 08:34:11;;;;;;;;;6.00;6.00;;;;;23.71;40.19;102458.22;5075757;28;45566;-68
2021/10/12 08:36:38;;;;;;;;;9.00;6.75;;;;;23.70;40.12;102444.13;5077392;28;46350;-67
2021/10/12 08:39:06;;;;;;;;;5.50;5.50;;;;;23.70;40.24;102444.13;5073430;28;45512;-68
2021/10/12 08:41:37;;;;;;;;;7.50;6.25;;;;;23.71;40.59;102439.63;5075515;28;45549;-67
2021/10/12 08:44:02;;;;;;;;;12.25;7.00;;;;;23.70;39.99;102438.81;5073835;28;45482;-68
2021/10/12 08:46:29;;;;;;;;;7.50;4.50;;;;;23.71;40.63;102444.94;5074377;28;46379;-67
2021/10/12 08:48:56;;;;;;;;;9.25;6.75;;;;;23.71;40.19;102442.28;5076812;28;45448;-68
2021/10/12 08:51:21;;;;;;;;;6.75;6.50;;;;;23.71;40.03;102436.97;5075818;28;45430;-67
2021/10/12 08:53:47;;;;;;;;;9.00;7.25;;;;;23.62;40.12;102423.63;5074483;28;45665;-68
2021/10/12 08:56:12;;;;;;;;;7.75;7.75;;;;;23.71;40.48;102431.63;5075180;28;47004;-68
2021/10/12 08:58:38;;;;;;;;;5.25;4.50;;;;;23.70;40.33;102435.31;5075275;28;46388;-67
2021/10/12 09:01:08;;;;;;;;;9.25;7.75;;;;;23.72;40.08;102435.97;5075036;28;45369;-67
2021/10/12 09:06:33;;;;;;;;;10.50;8.00;;;;;23.63;40.25;102416.47;5075749;28;45455;-68
2021/10/12 09:09:05;;;;;;;;;9.50;8.75;;;;;23.72;40.57;102420.88;5074363;28;45410;-68
2021/10/12 09:11:35;;;;;;;;;7.75;7.50;;;;;23.73;40.47;102429.69;5075237;28;45378;-67
2021/10/12 09:14:07;;;;;;;;;7.75;6.75;;;;;23.64;40.33;102418.16;5074947;28;45641;-67
2021/10/12 09:16:43;;;;;;;;;7.50;7.25;;;;;23.67;40.59;102417.00;5073224;28;45433;-68
2021/10/12 09:19:16;;;;;;;;;11.50;8.00;;;;;23.73;39.96;102419.06;5074825;28;45352;-68
2021/10/12 09:21:47;;;;;;;;;5.75;5.50;;;;;23.59;40.52;102394.69;5076474;28;45384;-68
2021/10/12 09:24:23;;;;;;;;;10.25;10.00;;;;;23.74;40.17;102418.06;5072453;28;47344;-68
2021/10/12 09:27:04;;;;;;;;;10.00;7.00;;;;;23.75;40.09;102414.41;5074454;28;46547;-68
2021/10/12 09:29:47;;;;;;;;;9.00;5.75;;;;;23.74;39.95;102405.59;5074428;28;45395;-67
2021/10/12 09:32:13;;;;;;;;;9.75;8.25;;;;;23.77;40.35;102416.91;5074769;28;45506;-67
2021/10/12 09:34:41;;;;;;;;;8.75;6.00;;;;;23.69;40.10;102402.56;5074776;28;45576;-67
2021/10/12 09:37:07;;;;;;;;;10.00;7.00;;;;;23.74;40.58;102413.56;5074355;28;47177;-68
2021/10/12 09:39:45;;;;;;;;;7.50;7.50;;;;;23.76;40.59;102408.09;5076286;28;45396;-67
2021/10/12 09:42:21;;;;;;;;;9.25;8.75;;;;;23.77;40.05;102411.59;5074688;28;45549;-67
2021/10/12 09:44:59;;;;;;;;;10.75;8.00;;;;;23.77;40.58;102415.09;5074364;28;45632;-67
2021/10/12 09:47:27;;;;;;;;;6.00;5.50;;;;;23.78;40.62;102410.63;5074283;28;47139;-68
2021/10/12 09:50:11;;;;;;;;;10.00;6.75;;;;;23.78;40.34;102406.16;5073373;28;45471;-68
2021/10/12 09:52:40;;;;;;;;;9.75;7.00;;;;;23.61;40.63;102376.78;5074303;28;45494;-68
2021/10/12 09:55:06;;;;;;;;;7.75;7.75;;;;;23.78;40.37;102400.84;5074919;28;45245;-68
2021/10/12 09:57:34;;;;;;;;;9.75;8.50;;;;;23.78;40.66;102403.50;5074228;28;45971;-68
2021/10/12 09:59:59;;;;;;;;;8.25;8.25;;;;;23.79;40.24;102401.63;5073989;28;45565;-68
2021/10/12 10:02:25;;;;;;;;;12.00;8.00;;;;;23.79;40.09;102398.97;5072281;28;45571;-68
2021/10/12 10:04:52;;;;;;;;;7.25;7.25;;;;;23.80;40.49;102395.34;5074083;28;45562;-68
2021/10/12 10:07:34;;;;;;;;;6.50;6.50;;;;;23.81;40.17;102397.03;5056440;28;45890;-68
2021/10/12 10:10:04;;;;;;;;;9.00;7.00;;;;;23.80;40.40;102393.53;5072365;28;45310;-68
2021/10/12 10:12:31;;;;;;;;;8.00;8.00;;;;;23.72;40.45;102380.19;5073894;28;45398;-68
2021/10/12 10:14:56;;;;;;;;;8.25;5.75;;;;;23.81;40.38;102391.72;5074083;28;45988;-68
2021/10/12 10:17:22;;;;;;;;;7.25;7.00;;;;;23.79;40.71;102377.72;5073692;28;46143;-68
2021/10/12 10:19:49;;;;;;;;;11.25;8.00;;;;;23.81;40.40;102373.09;5074098;28;45451;-68
2021/10/12 10:22:37;;;;;;;;;9.00;7.25;;;;;23.81;40.46;102373.09;5073825;28;45447;-68
2021/10/12 10:25:23;;;;;;;;;8.75;6.00;;;;;23.81;40.58;102365.94;5072206;28;45394;-68
2021/10/12 10:27:48;;;;;;;;;7.25;6.50;;;;;23.70;40.07;102344.97;5071656;28;46108;-68
2021/10/12 10:30:25;;;;;;;;;9.50;9.00;;;;;23.81;40.24;102365.13;5073800;28;45436;-68
2021/10/12 10:33:08;;;;;;;;;9.25;6.00;;;;;23.81;40.45;102357.97;5074024;28;45487;-68
2021/10/12 10:35:47;;;;;;;;;9.00;5.50;;;;;23.81;40.05;102362.47;5070814;28;45536;-68
2021/10/12 10:38:21;;;;;;;;;9.25;7.00;;;;;23.81;40.58;102357.97;5073492;28;46976;-68
2021/10/12 10:40:48;;;;;;;;;9.00;7.00;;;;;23.76;40.36;102341.66;5072105;28;45447;-68
2021/10/12 10:43:14;;;;;;;;;8.25;6.50;;;;;23.78;40.79;102347.69;5073824;28;45361;-68
2021/10/12 10:45:47;;;;;;;;;7.00;5.00;;;;;23.81;40.09;102346.53;5075780;28;45421;-68
2021/10/12 10:48:15;;;;;;;;;10.00;9.00;;;;;23.80;40.51;102342.19;5073602;28;46331;-68
2021/10/12 10:50:40;;;;;;;;;7.25;5.00;;;;;23.78;40.27;102328.22;5072961;28;45260;-68
2021/10/12 10:53:10;;;;;;;;;9.00;7.00;;;;;23.82;40.50;102326.91;5073602;28;45304;-68
2021/10/12 10:55:41;;;;;;;;;11.00;7.25;;;;;23.81;40.03;102326.09;5073736;28;45428;-68
2021/10/12 10:58:15;;;;;;;;;6.25;6.25;;;;;23.82;40.18;102332.25;5074003;28;46214;-68
2021/10/12 11:00:56;;;;;;;;;7.50;7.50;;;;;23.76;40.61;102312.44;5074743;28;45491;-68
2021/10/12 11:03:41;;;;;;;;;7.75;6.00;;;;;23.81;40.45;102322.63;5074607;28;45416;-68
2021/10/12 11:06:18;;;;;;;;;13.25;8.00;;;;;23.79;40.38;102317.44;5073066;28;45511;-68
2021/10/12 11:09:03;;;;;;;;;7.25;6.50;;;;;23.81;40.21;102326.09;5073066;28;47263;-68
2021/10/12 11:11:33;;;;;;;;;7.75;5.50;;;;;23.82;40.62;102329.56;5073141;28;45470;-68
2021/10/12 11:13:59;;;;;;;;;7.00;7.00;;;;;23.76;40.80;102317.75;5071726;28;45481;-68
2021/10/12 11:16:32;;;;;;;;;6.00;6.00;;;;;23.72;40.54;102305.78;5073216;28;45440;-68
2021/10/12 11:19:00;;;;;;;;;10.00;7.50;;;;;23.82;40.33;102314.47;5073652;28;47202;-68
2021/10/12 11:21:25;;;;;;;;;7.00;7.00;;;;;23.82;40.54;102308.31;5072675;28;45454;-69
2021/10/12 11:23:54;;;;;;;;;12.75;8.75;;;;;23.82;40.31;102303.00;5072844;28;45435;-68
2021/10/12 11:26:22;;;;;;;;;9.00;7.00;;;;;23.82;40.14;102300.34;5073178;28;45463;-68